Terminal Aerodrome Forecast
Issued by NWS

Home | Current Version | Previous Version | Text Only | Print | Product List | Glossary On
Versions: 1 2 3 4 5 6 7 8 9 10 11 12 13 14 15 16
000
FTUS43 KAPX 281724
TAFPLN
TAF
KPLN 281724Z 2818/2918 30008KT P6SM SCT040
     FM282000 VRB05KT P6SM SCT040
     FM290100 00000KT P6SM SCT250
     FM290800 00000KT P6SM SCT040 OVC090
     FM291200 33010KT P6SM BKN040=

USA.gov is the U.S. government's official web portal to all federal, state and local government web resources and services.